Time;durP1;ratioP1;P1;durP2;ratioP2;P2;SDS_P1;SDS_P2;PMS_P1;PMS_P2;Temp;Humidity;BMP_temperature;BMP_pressure;BME280_temperature;BME280_humidity;BME280_pressure;Samples;Min_cycle;Max_cycle;Signal;HPM_P1;HPM_P2
2022/05/18 00:03:10;;;;;;;8.60;2.50;;;23.50;47.20;;;;;;219974;1273;22718;-69
2022/05/18 00:08:14;;;;;;;16.70;3.00;;;23.50;47.70;;;;;;220106;1271;22581;-70
2022/05/18 00:13:19;;;;;;;9.90;2.50;;;23.50;47.40;;;;;;219700;1272;22736;-68
2022/05/18 00:18:22;;;;;;;5.30;2.30;;;23.40;47.40;;;;;;219567;1271;22695;-67
2022/05/18 00:23:30;;;;;;;5.30;1.80;;;23.40;47.70;;;;;;219889;1273;22545;-68
2022/05/18 00:28:40;;;;;;;7.30;2.20;;;23.40;47.70;;;;;;219622;1272;24243;-66
2022/05/18 00:33:46;;;;;;;3.50;1.60;;;23.40;47.70;;;;;;219699;1271;22995;-69
2022/05/18 00:38:49;;;;;;;5.10;2.30;;;23.40;47.90;;;;;;219926;1271;24261;-69
2022/05/18 00:43:54;;;;;;;3.70;1.80;;;23.40;48.40;;;;;;219878;1272;23917;-69
2022/05/18 00:49:01;;;;;;;3.30;1.70;;;23.30;48.40;;;;;;219806;1271;22624;-69
2022/05/18 00:54:15;;;;;;;4.20;2.00;;;23.30;48.20;;;;;;219801;1271;22546;-68
2022/05/18 00:59:29;;;;;;;5.30;2.00;;;23.30;48.20;;;;;;219515;1271;22599;-68
2022/05/18 01:04:37;;;;;;;6.80;2.50;;;23.30;48.20;;;;;;219823;1273;25333;-68
2022/05/18 01:09:50;;;;;;;4.40;2.30;;;23.30;48.70;;;;;;219577;1271;22618;-68
2022/05/18 01:15:06;;;;;;;6.10;2.40;;;23.30;48.40;;;;;;219657;1272;24330;-69
2022/05/18 01:20:24;;;;;;;9.10;2.90;;;23.30;48.50;;;;;;219736;1273;25428;-68
2022/05/18 01:25:56;;;;;;;14.80;3.10;;;23.30;48.90;;;;;;219806;1271;22711;-67
2022/05/18 01:31:04;;;;;;;6.90;2.30;;;23.30;48.60;;;;;;219667;1273;25317;-67
2022/05/18 01:36:19;;;;;;;3.40;1.60;;;23.20;48.80;;;;;;219430;1273;24243;-67
2022/05/18 01:41:33;;;;;;;4.80;2.20;;;23.20;48.80;;;;;;220112;1273;25473;-70
2022/05/18 01:46:38;;;;;;;7.90;2.40;;;23.20;48.90;;;;;;219834;1271;22712;-72
2022/05/18 01:51:45;;;;;;;4.70;2.20;;;23.20;49.00;;;;;;219658;1272;22693;-67
2022/05/18 01:56:49;;;;;;;3.20;1.60;;;23.20;49.10;;;;;;219843;1273;24444;-70
2022/05/18 02:01:53;;;;;;;6.30;2.50;;;23.20;49.10;;;;;;220033;1271;24227;-69
2022/05/18 02:06:59;;;;;;;3.70;1.80;;;23.20;49.20;;;;;;219770;1271;22736;-70
2022/05/18 02:12:06;;;;;;;16.50;3.30;;;23.20;49.20;;;;;;219875;1271;22708;-67
2022/05/18 02:17:10;;;;;;;12.40;2.90;;;23.10;49.20;;;;;;219912;1271;22606;-67
2022/05/18 02:22:13;;;;;;;5.20;2.40;;;23.10;49.80;;;;;;219858;1271;24556;-67
2022/05/18 02:27:18;;;;;;;7.50;2.30;;;23.10;49.30;;;;;;219634;1271;24373;-68
2022/05/18 02:32:24;;;;;;;3.20;1.70;;;23.10;49.40;;;;;;219863;1271;24803;-70
2022/05/18 02:37:27;;;;;;;5.30;2.40;;;23.10;49.50;;;;;;219491;1271;25337;-70
2022/05/18 02:42:31;;;;;;;3.00;1.70;;;23.10;49.90;;;;;;219935;1271;24400;-69
2022/05/18 02:47:36;;;;;;;4.10;1.50;;;23.00;49.50;;;;;;219971;1271;25317;-68
2022/05/18 02:52:39;;;;;;;3.40;1.50;;;23.00;49.90;;;;;;219855;1271;26263;-71
2022/05/18 02:57:43;;;;;;;3.20;1.60;;;23.00;49.70;;;;;;219683;1271;25564;-69
2022/05/18 03:02:47;;;;;;;5.20;1.60;;;23.00;49.70;;;;;;219580;1271;22559;-70
2022/05/18 03:07:51;;;;;;;3.00;1.70;;;23.00;49.80;;;;;;219753;1271;22548;-68
2022/05/18 03:12:55;;;;;;;4.60;1.80;;;23.00;49.80;;;;;;219613;1271;22545;-70
2022/05/18 03:18:03;;;;;;;5.50;2.00;;;22.90;49.90;;;;;;219694;1272;25265;-69
2022/05/18 03:28:31;;;;;;;6.20;1.90;;;22.90;49.90;;;;;;219663;1271;24229;-70
2022/05/18 03:33:36;;;;;;;5.40;2.00;;;22.90;50.00;;;;;;219693;1271;22541;-68
2022/05/18 03:38:46;;;;;;;3.70;1.80;;;22.90;50.00;;;;;;219639;1271;22566;-69
2022/05/18 03:43:50;;;;;;;5.90;2.30;;;22.90;50.00;;;;;;219644;1271;23090;-68
2022/05/18 03:48:54;;;;;;;5.50;1.90;;;22.80;50.30;;;;;;219764;1272;24448;-70
2022/05/18 03:54:02;;;;;;;5.00;1.80;;;22.90;50.10;;;;;;219746;1271;22625;-67
2022/05/18 03:59:10;;;;;;;9.60;2.50;;;22.80;50.10;;;;;;219666;1271;22608;-70
2022/05/18 04:04:15;;;;;;;15.60;3.00;;;22.80;50.20;;;;;;219588;1271;22568;-70
2022/05/18 04:09:19;;;;;;;4.80;1.80;;;22.80;50.20;;;;;;219574;1271;22475;-68
2022/05/18 04:14:24;;;;;;;8.00;2.30;;;22.80;50.20;;;;;;219794;1271;24813;-68
2022/05/18 04:19:28;;;;;;;5.00;1.70;;;22.80;50.30;;;;;;220094;1274;24229;-69
2022/05/18 04:24:31;;;;;;;5.60;1.70;;;22.80;50.30;;;;;;219309;1274;22809;-68
2022/05/18 04:29:35;;;;;;;3.50;1.70;;;22.80;50.40;;;;;;219258;1275;25386;-68
2022/05/18 04:34:41;;;;;;;6.10;1.80;;;22.80;50.40;;;;;;219611;1274;22620;-68
2022/05/18 04:39:45;;;;;;;2.60;1.40;;;22.80;50.40;;;;;;219586;1275;24264;-68
2022/05/18 04:44:53;;;;;;;4.30;1.60;;;22.80;50.60;;;;;;220082;1275;22549;-70
2022/05/18 04:49:57;;;;;;;7.10;1.90;;;22.80;50.30;;;;;;219607;1274;24725;-68
2022/05/18 04:55:02;;;;;;;6.60;2.00;;;22.80;50.40;;;;;;219750;1274;26095;-69
2022/05/18 05:00:11;;;;;;;9.70;2.40;;;22.80;50.70;;;;;;219544;1274;27389;-66
2022/05/18 05:05:15;;;;;;;5.20;1.70;;;22.80;51.00;;;;;;219815;1274;25523;-69
2022/05/18 05:10:18;;;;;;;10.30;2.40;;;22.80;50.40;;;;;;219560;1273;22560;-68
2022/05/18 05:15:22;;;;;;;4.60;1.70;;;22.70;50.40;;;;;;219679;1271;22555;-67
2022/05/18 05:20:27;;;;;;;3.10;1.50;;;22.80;50.30;;;;;;219751;1271;22566;-69
2022/05/18 05:25:31;;;;;;;4.80;1.60;;;22.80;50.30;;;;;;219835;1271;22691;-68
2022/05/18 05:30:36;;;;;;;3.80;1.40;;;22.80;50.30;;;;;;219750;1271;22594;-69
2022/05/18 05:35:41;;;;;;;8.20;2.30;;;22.80;50.40;;;;;;219797;1271;24452;-69
2022/05/18 05:40:48;;;;;;;15.70;3.20;;;22.80;50.30;;;;;;219718;1271;24430;-68
2022/05/18 05:46:06;;;;;;;11.50;2.40;;;22.70;50.30;;;;;;219918;1271;25237;-69
2022/05/18 05:51:15;;;;;;;7.20;2.00;;;22.80;50.20;;;;;;219879;1274;22725;-65
2022/05/18 05:56:24;;;;;;;3.40;1.50;;;22.80;50.50;;;;;;219870;1274;26056;-68
2022/05/18 06:01:28;;;;;;;7.30;1.60;;;22.90;50.50;;;;;;219676;1274;22560;-70
2022/05/18 06:06:32;;;;;;;9.60;2.10;;;22.90;50.40;;;;;;219878;1271;24279;-67
2022/05/18 06:11:41;;;;;;;11.40;2.50;;;22.90;50.30;;;;;;219648;1272;22764;-71
2022/05/18 06:16:50;;;;;;;14.20;2.60;;;22.90;50.60;;;;;;219735;1271;25422;-68
2022/05/18 06:21:53;;;;;;;17.10;3.30;;;22.90;51.50;;;;;;219609;1271;24514;-65
2022/05/18 06:26:59;;;;;;;6.90;1.80;;;22.90;51.10;;;;;;219764;1271;22543;-68
2022/05/18 06:32:03;;;;;;;3.00;1.20;;;23.00;51.00;;;;;;219658;1270;22727;-69
2022/05/18 06:37:07;;;;;;;9.00;1.80;;;23.00;51.10;;;;;;219910;1271;22625;-66
2022/05/18 06:42:11;;;;;;;14.70;2.10;;;23.10;51.10;;;;;;220043;1271;23917;-70
2022/05/18 06:47:18;;;;;;;11.80;2.30;;;23.10;51.00;;;;;;219609;1271;24864;-66
2022/05/18 06:52:22;;;;;;;10.20;2.30;;;23.10;49.70;;;;;;219794;1271;26490;-67
2022/05/18 06:57:26;;;;;;;8.30;2.30;;;23.10;50.20;;;;;;219700;1272;23232;-65
2022/05/18 07:02:32;;;;;;;19.80;2.10;;;23.10;49.30;;;;;;219786;1271;22684;-60
2022/05/18 07:07:38;;;;;;;8.40;1.90;;;23.20;49.20;;;;;;219631;1271;23034;-57
2022/05/18 07:12:41;;;;;;;11.10;2.60;;;23.00;48.90;;;;;;219519;1271;22544;-57
2022/05/18 07:17:48;;;;;;;10.30;2.00;;;23.00;47.60;;;;;;219665;1271;25464;-59
2022/05/18 07:23:05;;;;;;;10.10;2.40;;;23.00;46.40;;;;;;217060;1271;3339356;-56
2022/05/18 07:28:10;;;;;;;13.10;2.90;;;23.00;46.30;;;;;;219779;1271;25382;-56
2022/05/18 07:33:29;;;;;;;9.20;2.50;;;23.10;46.50;;;;;;219514;1271;23209;-58
2022/05/18 07:38:35;;;;;;;16.70;4.20;;;23.10;45.70;;;;;;219161;1273;22564;-59
2022/05/18 07:43:42;;;;;;;13.90;3.70;;;23.10;46.00;;;;;;219620;1273;22573;-56
2022/05/18 07:48:45;;;;;;;15.20;3.90;;;23.20;45.30;;;;;;219386;1273;25393;-57
2022/05/18 07:53:49;;;;;;;11.60;3.30;;;23.20;45.70;;;;;;219619;1273;25406;-58
2022/05/18 07:58:56;;;;;;;12.10;3.70;;;23.20;45.30;;;;;;219705;1273;24244;-57
2022/05/18 08:04:00;;;;;;;12.60;3.10;;;23.20;45.00;;;;;;219466;1271;22580;-58
2022/05/18 08:09:05;;;;;;;11.30;3.40;;;23.20;45.30;;;;;;219688;1271;22806;-56
2022/05/18 08:19:31;;;;;;;10.60;3.20;;;23.20;45.60;;;;;;219555;1271;22535;-57
2022/05/18 08:24:45;;;;;;;11.80;3.50;;;23.20;45.80;;;;;;219464;1271;25460;-58
2022/05/18 08:30:08;;;;;;;14.40;4.50;;;23.20;46.10;;;;;;219562;1271;22753;-58
2022/05/18 08:35:16;;;;;;;9.60;3.30;;;23.20;46.40;;;;;;219523;1271;25330;-57
2022/05/18 08:40:29;;;;;;;8.90;3.10;;;23.20;48.20;;;;;;219717;1271;23042;-58
2022/05/18 08:45:37;;;;;;;8.00;3.20;;;23.30;48.40;;;;;;219584;1271;22630;-58
2022/05/18 08:50:41;;;;;;;13.00;3.60;;;23.30;47.80;;;;;;219955;1271;24887;-57
2022/05/18 08:55:58;;;;;;;11.00;3.20;;;23.30;47.20;;;;;;219714;1271;24343;-58
2022/05/18 09:01:13;;;;;;;8.10;3.10;;;23.30;46.90;;;;;;219675;1271;22804;-57
2022/05/18 09:06:37;;;;;;;6.90;2.60;;;23.30;46.60;;;;;;219791;1271;24498;-57
2022/05/18 09:11:44;;;;;;;14.40;3.90;;;23.30;46.20;;;;;;219874;1273;22858;-57
2022/05/18 09:17:20;;;;;;;8.00;2.60;;;23.30;46.00;;;;;;219773;1271;22559;-58
2022/05/18 09:22:47;;;;;;;9.90;2.90;;;23.30;45.80;;;;;;219842;1271;22854;-58
2022/05/18 09:27:54;;;;;;;8.00;2.80;;;23.30;45.60;;;;;;219419;1271;22919;-57
2022/05/18 09:33:10;;;;;;;10.00;2.50;;;23.30;45.20;;;;;;219598;1273;22561;-57
2022/05/18 09:38:24;;;;;;;8.90;2.70;;;23.30;44.80;;;;;;219597;1271;24388;-59
2022/05/18 09:43:41;;;;;;;8.10;2.30;;;23.30;44.10;;;;;;219609;1271;24228;-59
2022/05/18 09:48:54;;;;;;;12.50;3.30;;;23.40;44.70;;;;;;219685;1271;22540;-60
2022/05/18 09:53:59;;;;;;;9.90;2.50;;;23.40;45.30;;;;;;219720;1271;25473;-57
2022/05/18 09:59:11;;;;;;;18.70;2.60;;;23.20;46.10;;;;;;219643;1271;23959;-57
2022/05/18 10:09:49;;;;;;;4.90;1.50;;;22.50;37.00;;;;;;219644;1271;25508;-59
2022/05/18 10:15:07;;;;;;;3.50;1.50;;;22.30;34.50;;;;;;219471;1271;23800;-58
2022/05/18 10:20:23;;;;;;;7.00;1.50;;;22.20;35.90;;;;;;219284;1273;24231;-56
2022/05/18 10:25:33;;;;;;;3.20;1.30;;;22.50;34.40;;;;;;219709;1271;24775;-56
2022/05/18 10:30:37;;;;;;;2.50;1.40;;;22.90;34.30;;;;;;219727;1271;24241;-57
2022/05/18 10:35:49;;;;;;;2.80;1.30;;;23.00;34.80;;;;;;219724;1271;22896;-54
2022/05/18 10:41:04;;;;;;;3.10;1.10;;;23.10;35.30;;;;;;219675;1271;22561;-55
2022/05/18 10:46:16;;;;;;;4.70;1.20;;;23.20;36.10;;;;;;219898;1271;23929;-53
2022/05/18 10:51:29;;;;;;;2.70;1.30;;;23.20;36.40;;;;;;219914;1271;24147;-56
2022/05/18 10:56:33;;;;;;;2.50;1.20;;;23.30;37.10;;;;;;219821;1271;24275;-55
2022/05/18 11:01:48;;;;;;;2.90;1.30;;;23.30;37.10;;;;;;219679;1271;22714;-54
2022/05/18 11:06:53;;;;;;;2.00;0.90;;;23.30;37.60;;;;;;219869;1271;24055;-55
2022/05/18 11:12:25;;;;;;;4.20;1.50;;;23.30;37.70;;;;;;219777;1271;25527;-55
2022/05/18 11:17:52;;;;;;;2.60;1.20;;;23.40;38.20;;;;;;219850;1271;24246;-54
2022/05/18 11:23:02;;;;;;;2.70;1.20;;;23.40;38.00;;;;;;219775;1271;23195;-53
2022/05/18 11:28:21;;;;;;;2.30;1.10;;;23.40;38.30;;;;;;219775;1273;22698;-56
2022/05/18 11:34:01;;;;;;;2.70;1.40;;;23.50;38.60;;;;;;219910;1272;23139;-54
2022/05/18 11:39:19;;;;;;;3.80;1.30;;;23.50;38.70;;;;;;219947;1271;22728;-56
2022/05/18 11:44:57;;;;;;;2.40;1.30;;;23.50;38.80;;;;;;219753;1271;24277;-54
2022/05/18 11:50:24;;;;;;;4.10;1.50;;;23.60;38.80;;;;;;219841;1271;22554;-54
2022/05/18 11:55:39;;;;;;;2.60;1.20;;;23.60;38.90;;;;;;219810;1271;22628;-56
2022/05/18 12:01:02;;;;;;;4.10;1.50;;;23.60;38.80;;;;;;219989;1271;26739;-55
2022/05/18 12:06:28;;;;;;;3.70;1.60;;;23.60;39.20;;;;;;220076;1271;22618;-54
2022/05/18 12:12:04;;;;;;;3.50;1.10;;;23.60;38.90;;;;;;219854;1271;24714;-57
2022/05/18 12:17:23;;;;;;;2.30;1.00;;;23.60;38.80;;;;;;219770;1271;24298;-56
2022/05/18 12:22:38;;;;;;;2.00;1.20;;;23.70;38.70;;;;;;219876;1271;24430;-57
2022/05/18 12:27:52;;;;;;;4.90;2.00;;;23.70;38.90;;;;;;219563;1271;22529;-54
2022/05/18 12:32:57;;;;;;;4.60;1.90;;;23.70;39.40;;;;;;219789;1271;25302;-55
2022/05/18 12:38:06;;;;;;;4.50;1.40;;;23.80;39.80;;;;;;219854;1271;24304;-62
2022/05/18 12:43:39;;;;;;;3.20;1.40;;;23.80;39.80;;;;;;219870;1271;26052;-62
2022/05/18 12:48:47;;;;;;;10.90;2.60;;;23.80;41.60;;;;;;220145;1271;24292;-62
2022/05/18 12:53:52;;;;;;;5.10;1.40;;;23.90;42.60;;;;;;220158;1271;24327;-63
2022/05/18 12:59:00;;;;;;;18.80;4.60;;;23.90;41.60;;;;;;219993;1271;22557;-62
2022/05/18 13:04:10;;;;;;;2.90;1.70;;;24.00;43.20;;;;;;219902;1273;23902;-62
2022/05/18 13:09:29;;;;;;;3.80;1.60;;;24.00;43.70;;;;;;219582;1273;22557;-63
2022/05/18 13:14:34;;;;;;;4.30;1.30;;;24.00;46.30;;;;;;219550;1273;22830;-62
2022/05/18 13:19:44;;;;;;;4.00;1.60;;;24.10;45.60;;;;;;219817;1273;22548;-64
2022/05/18 13:24:55;;;;;;;3.30;1.40;;;24.10;46.00;;;;;;220062;1273;24391;-63
2022/05/18 13:30:06;;;;;;;4.20;1.60;;;24.10;46.60;;;;;;219468;1275;24655;-65
2022/05/18 13:35:16;;;;;;;4.80;1.80;;;24.10;46.80;;;;;;219664;1273;24179;-63
2022/05/18 13:40:24;;;;;;;3.00;1.50;;;24.10;45.60;;;;;;219795;1273;22709;-65
2022/05/18 13:45:30;;;;;;;4.40;1.30;;;24.10;45.10;;;;;;219986;1273;22546;-65
2022/05/18 13:51:02;;;;;;;6.30;1.80;;;24.10;44.20;;;;;;219569;1273;26060;-67
2022/05/18 13:56:49;;;;;;;3.70;1.60;;;24.10;43.30;;;;;;219858;1273;22535;-68
2022/05/18 14:02:00;;;;;;;4.30;1.80;;;24.10;42.60;;;;;;219714;1273;23259;-68
2022/05/18 14:07:08;;;;;;;3.20;1.50;;;24.00;42.20;;;;;;219771;1273;22560;-68
2022/05/18 14:12:16;;;;;;;4.00;1.30;;;24.00;42.00;;;;;;219799;1271;23375;-67
2022/05/18 14:17:38;;;;;;;2.00;1.10;;;24.00;41.70;;;;;;219723;1271;23008;-67
2022/05/18 14:22:57;;;;;;;4.70;1.50;;;24.00;41.60;;;;;;219961;1271;22760;-67
2022/05/18 14:28:24;;;;;;;3.80;1.50;;;23.90;41.40;;;;;;219773;1273;26335;-68
2022/05/18 14:33:56;;;;;;;2.70;1.40;;;23.90;41.60;;;;;;219569;1273;25377;-68
2022/05/18 14:39:22;;;;;;;4.80;1.60;;;23.90;41.00;;;;;;219775;1271;22579;-68
2022/05/18 14:44:35;;;;;;;3.00;1.30;;;24.00;40.90;;;;;;219816;1271;25381;-67
2022/05/18 14:50:23;;;;;;;3.70;1.50;;;24.00;41.10;;;;;;219935;1270;24245;-68
2022/05/18 14:55:54;;;;;;;;;;;23.90;40.60;;;;;;219837;1270;25708;-66
2022/05/18 15:01:06;;;;;;;4.00;1.50;;;23.90;40.60;;;;;;219764;1270;22715;-65
2022/05/18 15:06:13;;;;;;;10.50;2.00;;;24.00;40.70;;;;;;219212;1273;24316;-65
2022/05/18 15:11:29;;;;;;;8.60;1.60;;;24.00;40.90;;;;;;219574;1271;22699;-67
2022/05/18 15:16:45;;;;;;;7.70;1.50;;;24.00;42.00;;;;;;219640;1273;22623;-67
2022/05/18 15:22:22;;;;;;;6.60;1.50;;;24.00;41.60;;;;;;219592;1271;24353;-66
2022/05/18 15:27:31;;;;;;;12.00;2.60;;;24.00;41.30;;;;;;219767;1271;25250;-65
2022/05/18 15:32:38;;;;;;;5.60;1.60;;;24.10;41.30;;;;;;219540;1273;23606;-65
2022/05/18 15:37:50;;;;;;;;;;;24.10;41.80;;;;;;219857;1273;23978;-66
2022/05/18 15:42:55;;;;;;;7.30;1.90;;;24.10;42.90;;;;;;219718;1271;23935;-67
2022/05/18 15:48:00;;;;;;;5.30;1.30;;;24.10;42.50;;;;;;219723;1273;25384;-65
2022/05/18 15:53:05;;;;;;;4.80;2.20;;;24.10;41.00;;;;;;219914;1271;24385;-65
2022/05/18 15:58:12;;;;;;;6.30;1.70;;;24.20;40.50;;;;;;219945;1271;22555;-66
2022/05/18 16:03:16;;;;;;;3.30;1.40;;;24.20;40.90;;;;;;220021;1271;25265;-66
2022/05/18 16:08:28;;;;;;;6.50;1.70;;;24.10;40.40;;;;;;219785;1272;24284;-65
2022/05/18 16:13:34;;;;;;;9.00;2.20;;;24.10;40.10;;;;;;219952;1272;22694;-64
2022/05/18 16:18:38;;;;;;;5.50;1.60;;;24.20;42.00;;;;;;219898;1273;22885;-65
2022/05/18 16:23:50;;;;;;;6.10;1.90;;;24.20;42.30;;;;;;219818;1273;24447;-64
2022/05/18 16:29:02;;;;;;;8.60;1.50;;;24.20;41.50;;;;;;219810;1273;24231;-64
2022/05/18 16:34:16;;;;;;;4.90;1.70;;;24.20;41.30;;;;;;219506;1273;22557;-65
2022/05/18 16:39:20;;;;;;;6.40;1.90;;;24.30;41.10;;;;;;219591;1271;22511;-62
2022/05/18 16:44:31;;;;;;;7.50;1.60;;;24.20;40.80;;;;;;219962;1272;25325;-63
2022/05/18 16:49:39;;;;;;;9.10;1.70;;;24.20;41.80;;;;;;219906;1270;24801;-64
2022/05/18 16:54:49;;;;;;;8.00;2.20;;;24.20;41.40;;;;;;219742;1270;25340;-66
2022/05/18 17:00:01;;;;;;;13.40;2.20;;;24.20;41.30;;;;;;219997;1270;22574;-63
2022/05/18 17:10:31;;;;;;;16.00;2.80;;;24.30;43.90;;;;;;219723;1271;25542;-65
2022/05/18 17:15:38;;;;;;;18.60;2.80;;;24.30;44.00;;;;;;219812;1271;24286;-67
2022/05/18 17:20:52;;;;;;;12.80;2.00;;;24.30;43.00;;;;;;219646;1270;24289;-66
2022/05/18 17:25:57;;;;;;;14.60;2.60;;;24.30;43.00;;;;;;219634;1271;24236;-64
2022/05/18 17:31:04;;;;;;;16.30;2.70;;;24.30;42.90;;;;;;219634;1271;24345;-64
2022/05/18 17:36:09;;;;;;;25.70;3.20;;;24.30;42.50;;;;;;219748;1273;22705;-63
2022/05/18 17:41:16;;;;;;;10.70;2.70;;;24.30;42.10;;;;;;219326;1273;22568;-67
2022/05/18 17:46:20;;;;;;;13.10;2.40;;;24.30;41.90;;;;;;219815;1271;22665;-68
2022/05/18 17:51:46;;;;;;;13.70;3.10;;;24.40;41.80;;;;;;219692;1271;22548;-71
2022/05/18 17:56:53;;;;;;;15.50;2.20;;;24.40;41.70;;;;;;219427;1273;25268;-70
2022/05/18 18:02:03;;;;;;;;;;;24.50;41.50;;;;;;219699;1271;24825;-66
2022/05/18 18:07:10;;;;;;;18.20;2.50;;;24.40;41.60;;;;;;219993;1271;22554;-74
2022/05/18 18:12:16;;;;;;;20.00;2.00;;;24.30;41.70;;;;;;219867;1271;24245;-69
2022/05/18 18:17:32;;;;;;;21.50;2.80;;;24.30;42.60;;;;;;219516;1273;25174;-70
2022/05/18 18:22:49;;;;;;;12.40;2.50;;;24.30;42.10;;;;;;219769;1271;22548;-70
2022/05/18 18:27:54;;;;;;;18.00;2.40;;;24.30;42.30;;;;;;219644;1271;24305;-65
2022/05/18 18:33:01;;;;;;;11.30;2.30;;;24.40;43.40;;;;;;219828;1271;24283;-67
2022/05/18 18:38:07;;;;;;;10.70;2.00;;;24.40;42.80;;;;;;219740;1273;24322;-65
2022/05/18 18:43:14;;;;;;;20.30;2.50;;;24.40;43.30;;;;;;219485;1273;22538;-67
2022/05/18 18:48:19;;;;;;;12.50;2.40;;;24.40;43.90;;;;;;219939;1271;26806;-66
2022/05/18 18:58:46;;;;;;;11.50;2.80;;;24.30;44.00;;;;;;219838;1271;22536;-61
2022/05/18 19:03:50;;;;;;;8.10;2.50;;;24.30;44.00;;;;;;219703;1271;22702;-68
2022/05/18 19:08:54;;;;;;;15.80;2.40;;;24.30;43.70;;;;;;219850;1272;22573;-64
2022/05/18 19:13:58;;;;;;;14.30;3.10;;;24.40;43.60;;;;;;219645;1271;25051;-65
2022/05/18 19:19:05;;;;;;;7.40;2.50;;;24.40;44.00;;;;;;219636;1273;252628;-65
2022/05/18 19:24:19;;;;;;;12.20;2.70;;;24.40;43.70;;;;;;219741;1271;24350;-64
2022/05/18 19:29:24;;;;;;;14.30;2.50;;;24.40;43.50;;;;;;219615;1271;24353;-65
2022/05/18 19:34:33;;;;;;;9.50;2.20;;;24.40;43.70;;;;;;219651;1273;22569;-67
2022/05/18 19:39:49;;;;;;;21.00;3.30;;;24.30;43.90;;;;;;219564;1271;22627;-69
2022/05/18 19:44:59;;;;;;;12.10;2.70;;;24.30;44.50;;;;;;219821;1270;22567;-68
2022/05/18 19:50:05;;;;;;;12.80;2.70;;;24.30;44.80;;;;;;219848;1270;22556;-69
2022/05/18 19:55:17;;;;;;;10.10;2.60;;;24.30;44.90;;;;;;220056;1270;22563;-66
2022/05/18 20:00:34;;;;;;;7.10;2.00;;;24.20;44.70;;;;;;219839;1270;22554;-69
2022/05/18 20:05:40;;;;;;;7.70;1.80;;;24.20;45.00;;;;;;219838;1272;22552;-69
2022/05/18 20:10:46;;;;;;;13.10;3.10;;;24.20;45.10;;;;;;219220;1273;25386;-71
2022/05/18 20:15:52;;;;;;;9.50;2.40;;;24.20;45.60;;;;;;219676;1271;24278;-71
2022/05/18 20:20:56;;;;;;;7.50;2.10;;;24.10;45.40;;;;;;219611;1271;25540;-69
2022/05/18 20:26:12;;;;;;;6.00;2.40;;;24.10;45.20;;;;;;219822;1271;22763;-68
2022/05/18 20:31:28;;;;;;;10.10;2.30;;;24.00;45.10;;;;;;219806;1273;24431;-67
2022/05/18 20:36:39;;;;;;;6.60;2.30;;;24.10;45.40;;;;;;219721;1272;22711;-69
2022/05/18 20:41:52;;;;;;;6.10;2.10;;;24.00;45.30;;;;;;219789;1272;22569;-68
2022/05/18 20:47:09;;;;;;;6.40;2.70;;;24.00;45.30;;;;;;219761;1271;24384;-71
2022/05/18 20:52:14;;;;;;;7.70;1.90;;;23.90;45.20;;;;;;219724;1271;22540;-70
2022/05/18 20:57:20;;;;;;;5.20;1.80;;;23.90;45.40;;;;;;220184;1273;22555;-72
2022/05/18 21:02:30;;;;;;;9.30;2.00;;;23.90;45.40;;;;;;219974;1272;24277;-68
2022/05/18 21:07:34;;;;;;;4.30;1.50;;;23.90;45.70;;;;;;219694;1272;26429;-73
2022/05/18 21:12:52;;;;;;;7.50;2.10;;;23.90;45.80;;;;;;219400;1273;24316;-73
2022/05/18 21:17:57;;;;;;;12.40;2.80;;;23.80;45.70;;;;;;219745;1271;25329;-70
2022/05/18 21:23:06;;;;;;;10.50;2.40;;;23.90;50.60;;;;;;219788;1271;25639;-67
2022/05/18 21:28:17;;;;;;;9.20;3.10;;;23.90;50.30;;;;;;219913;1272;22534;-70
2022/05/18 21:33:21;;;;;;;9.00;2.30;;;23.90;50.10;;;;;;219865;1272;22652;-66
2022/05/18 21:38:25;;;;;;;9.30;3.00;;;23.90;49.60;;;;;;219691;1271;25341;-66
2022/05/18 21:43:30;;;;;;;11.50;2.20;;;23.90;49.30;;;;;;219610;1271;22616;-66
2022/05/18 21:48:35;;;;;;;6.90;2.20;;;23.90;49.40;;;;;;219652;1273;22703;-67
2022/05/18 21:53:42;;;;;;;12.20;2.90;;;23.90;49.40;;;;;;219313;1273;22563;-65
2022/05/18 21:58:48;;;;;;;7.40;2.30;;;23.90;49.30;;;;;;219741;1271;25692;-68
2022/05/18 22:03:52;;;;;;;7.60;2.40;;;23.90;49.40;;;;;;219764;1271;25522;-73
2022/05/18 22:08:56;;;;;;;13.70;3.00;;;23.90;49.30;;;;;;219640;1273;22539;-72
2022/05/18 22:14:10;;;;;;;7.90;2.40;;;23.90;49.20;;;;;;219496;1271;23929;-66
2022/05/18 22:19:20;;;;;;;5.20;2.00;;;23.90;49.50;;;;;;219584;1271;22710;-64
2022/05/18 22:24:26;;;;;;;7.40;2.40;;;23.90;49.00;;;;;;219771;1272;25107;-68
2022/05/18 22:29:34;;;;;;;6.60;2.60;;;23.90;49.40;;;;;;219541;1273;22559;-67
2022/05/18 22:34:38;;;;;;;6.70;2.10;;;23.90;49.40;;;;;;219740;1271;24307;-68
2022/05/18 22:39:42;;;;;;;9.50;2.40;;;23.90;49.20;;;;;;219720;1271;22563;-72
2022/05/18 22:44:48;;;;;;;5.20;1.70;;;23.90;48.70;;;;;;219199;1274;24380;-66
2022/05/18 22:49:59;;;;;;;6.00;2.20;;;24.00;48.70;;;;;;219604;1271;23918;-70
2022/05/18 22:55:07;;;;;;;11.30;2.30;;;24.00;49.20;;;;;;219854;1271;24253;-68
2022/05/18 23:00:17;;;;;;;11.30;2.00;;;24.00;49.10;;;;;;219487;1273;22821;-67
2022/05/18 23:05:31;;;;;;;10.50;2.60;;;24.00;49.50;;;;;;219739;1271;25241;-68
2022/05/18 23:10:39;;;;;;;6.60;2.10;;;23.90;49.60;;;;;;219844;1272;24846;-68
2022/05/18 23:15:48;;;;;;;5.90;1.90;;;24.00;49.90;;;;;;219708;1271;22695;-67
2022/05/18 23:20:54;;;;;;;7.10;2.20;;;23.90;49.80;;;;;;220052;1271;22539;-66
2022/05/18 23:26:06;;;;;;;6.70;2.30;;;23.90;50.10;;;;;;219645;1271;24814;-68
2022/05/18 23:31:14;;;;;;;6.10;2.80;;;24.00;50.30;;;;;;219978;1271;25550;-68
2022/05/18 23:36:22;;;;;;;8.40;2.60;;;23.90;50.50;;;;;;219630;1273;25270;-68
2022/05/18 23:41:28;;;;;;;7.30;2.90;;;23.90;50.60;;;;;;219470;1273;22698;-66
2022/05/18 23:46:38;;;;;;;10.60;3.30;;;23.90;50.80;;;;;;219793;1273;25338;-66
2022/05/18 23:51:44;;;;;;;6.10;2.20;;;23.90;50.90;;;;;;219727;1275;23807;-67
2022/05/18 23:56:57;;;;;;;6.70;2.70;;;23.90;50.90;;;;;;219411;1275;24236;-67
